createdAt,value
2023-01-20T00:02:04.345Z,10.00
2023-01-20T00:04:51.135Z,9.63
2023-01-20T00:07:39.397Z,9.03
2023-01-20T00:10:26.110Z,9.83
2023-01-20T00:13:12.924Z,9.13
2023-01-20T00:15:59.976Z,8.17
2023-01-20T00:18:46.676Z,8.50
2023-01-20T00:21:35.751Z,8.43
2023-01-20T00:24:23.864Z,8.97
2023-01-20T00:27:10.665Z,8.63
2023-01-20T00:29:57.959Z,9.20
2023-01-20T00:32:45.571Z,8.67
2023-01-20T00:35:32.367Z,9.73
2023-01-20T00:38:19.183Z,9.20
2023-01-20T00:41:07.951Z,9.30
2023-01-20T00:43:54.831Z,8.33
2023-01-20T00:46:41.587Z,7.63
2023-01-20T00:49:28.239Z,7.73
2023-01-20T00:52:15.647Z,7.43
2023-01-20T00:55:02.494Z,7.67
2023-01-20T00:57:50.617Z,7.13
2023-01-20T01:00:37.762Z,7.17
2023-01-20T01:03:24.302Z,7.07
2023-01-20T01:06:12.907Z,7.60
2023-01-20T01:08:59.601Z,7.73
2023-01-20T01:11:46.208Z,7.33
2023-01-20T01:14:34.646Z,7.53
2023-01-20T01:17:23.775Z,6.97
2023-01-20T01:20:11.755Z,8.30
2023-01-20T01:22:58.342Z,7.00
2023-01-20T01:25:45.188Z,7.40
2023-01-20T01:28:31.930Z,6.47
2023-01-20T01:31:22.074Z,6.17
2023-01-20T01:34:08.704Z,6.53
2023-01-20T01:36:56.135Z,6.87
2023-01-20T01:39:42.857Z,6.37
2023-01-20T01:42:29.828Z,8.63
2023-01-20T01:45:26.949Z,5.83
2023-01-20T01:48:15.316Z,6.53
2023-01-20T01:51:07.548Z,6.40
2023-01-20T01:53:57.835Z,5.97
2023-01-20T01:56:45.648Z,6.17
2023-01-20T01:59:32.235Z,7.17
2023-01-20T02:02:21.178Z,7.03
2023-01-20T02:05:13.779Z,6.47
2023-01-20T02:08:00.735Z,7.47
2023-01-20T02:10:47.516Z,7.67
2023-01-20T02:13:35.113Z,6.30
2023-01-20T02:16:31.795Z,7.07
2023-01-20T02:19:38.411Z,6.93
2023-01-20T02:22:34.868Z,6.67
2023-01-20T02:25:58.801Z,6.43
2023-01-20T02:29:10.842Z,6.13
2023-01-20T02:32:19.069Z,7.00
2023-01-20T02:35:13.265Z,6.70
2023-01-20T02:38:15.335Z,6.87
2023-01-20T02:41:10.783Z,6.97
2023-01-20T02:44:03.984Z,6.90
2023-01-20T02:46:59.281Z,7.23
2023-01-20T02:49:54.522Z,6.37
2023-01-20T02:52:44.581Z,5.20
2023-01-20T02:55:34.975Z,5.43
2023-01-20T02:58:27.149Z,5.60
2023-01-20T03:01:18.632Z,6.17
2023-01-20T03:04:09.594Z,6.20
2023-01-20T03:06:59.905Z,5.53
2023-01-20T03:09:49.488Z,6.43
2023-01-20T03:12:44.497Z,7.07
2023-01-20T03:15:36.507Z,7.30
2023-01-20T03:18:23.907Z,6.53
2023-01-20T03:21:11.943Z,6.80
2023-01-20T03:24:03.180Z,7.30
2023-01-20T03:26:50.107Z,6.07
2023-01-20T03:29:36.870Z,6.60
2023-01-20T03:32:26.971Z,6.20
2023-01-20T03:35:16.416Z,6.47
2023-01-20T03:38:03.309Z,7.67
2023-01-20T03:41:00.868Z,7.27
2023-01-20T03:43:57.050Z,6.83
2023-01-20T03:46:51.009Z,7.17
2023-01-20T03:49:45.875Z,6.83
2023-01-20T03:52:46.980Z,6.73
2023-01-20T03:55:39.652Z,8.23
2023-01-20T03:58:36.453Z,8.33
2023-01-20T04:01:28.267Z,7.20
2023-01-20T04:04:18.046Z,6.97
2023-01-20T04:07:06.516Z,6.83
2023-01-20T04:09:57.135Z,7.43
2023-01-20T04:12:44.345Z,8.27
2023-01-20T04:15:35.534Z,7.10
2023-01-20T04:18:24.483Z,7.07
2023-01-20T04:21:16.504Z,7.47
2023-01-20T04:24:09.974Z,6.90
2023-01-20T04:26:57.201Z,6.80
2023-01-20T04:29:43.927Z,8.47
2023-01-20T04:32:32.117Z,7.70
2023-01-20T04:35:20.777Z,7.47
2023-01-20T04:38:08.002Z,7.23
2023-01-20T04:40:54.541Z,8.17
2023-01-20T04:43:44.636Z,6.93
2023-01-20T04:46:31.443Z,8.17
2023-01-20T04:49:19.555Z,7.67
2023-01-20T04:52:06.260Z,6.57
2023-01-20T04:54:53.022Z,6.87
2023-01-20T04:57:40.174Z,7.97
2023-01-20T05:00:26.753Z,7.47
2023-01-20T05:03:13.754Z,7.80
2023-01-20T05:06:01.684Z,7.77
2023-01-20T05:08:48.371Z,7.53
2023-01-20T05:11:35.508Z,8.13
2023-01-20T05:14:22.133Z,7.50
2023-01-20T05:17:08.878Z,7.40
2023-01-20T05:19:55.627Z,8.20
2023-01-20T05:22:44.607Z,8.37
2023-01-20T05:25:31.440Z,7.30
2023-01-20T05:28:18.129Z,7.13
2023-01-20T05:31:05.008Z,7.10
2023-01-20T05:33:51.817Z,7.57
2023-01-20T05:36:38.449Z,7.37
2023-01-20T05:39:26.907Z,7.60
2023-01-20T05:42:13.436Z,7.83
2023-01-20T05:45:00.323Z,8.13
2023-01-20T05:47:47.242Z,7.70
2023-01-20T05:50:34.241Z,7.40
2023-01-20T05:53:21.050Z,7.17
2023-01-20T05:56:12.186Z,7.80
2023-01-20T05:58:59.165Z,8.67
2023-01-20T06:01:45.613Z,7.53
2023-01-20T06:04:38.086Z,7.90
2023-01-20T06:07:26.957Z,8.23
2023-01-20T06:10:14.242Z,7.83
2023-01-20T06:13:02.217Z,8.20
2023-01-20T06:15:52.968Z,7.97
2023-01-20T06:18:39.698Z,8.73
2023-01-20T06:21:26.564Z,8.77
2023-01-20T06:24:13.361Z,8.13
2023-01-20T06:27:00.152Z,7.60
2023-01-20T06:29:48.250Z,7.50
2023-01-20T06:32:34.979Z,7.97
2023-01-20T06:35:21.978Z,7.80
2023-01-20T06:38:08.557Z,7.63
2023-01-20T06:40:58.761Z,7.40
2023-01-20T06:43:45.508Z,7.20
2023-01-20T06:46:33.577Z,7.43
2023-01-20T06:49:20.331Z,8.50
2023-01-20T06:52:07.157Z,7.77
2023-01-20T06:54:54.103Z,8.33
2023-01-20T06:57:40.815Z,8.20
2023-01-20T07:00:27.583Z,7.90
2023-01-20T07:03:15.783Z,8.97
2023-01-20T07:06:04.755Z,9.30
2023-01-20T07:08:51.304Z,9.63
2023-01-20T07:11:38.328Z,9.23
2023-01-20T07:14:24.826Z,10.43
2023-01-20T07:17:13.609Z,9.57
2023-01-20T07:20:01.443Z,8.27
2023-01-20T07:22:49.313Z,9.40
2023-01-20T07:25:38.140Z,8.43
2023-01-20T07:28:24.926Z,9.60
2023-01-20T07:31:13.716Z,8.63
2023-01-20T07:34:00.557Z,9.40
2023-01-20T07:36:48.718Z,9.50
2023-01-20T07:39:36.368Z,10.83
2023-01-20T07:42:23.156Z,9.60
2023-01-20T07:45:10.547Z,11.23
2023-01-20T07:47:57.397Z,10.30
2023-01-20T07:50:43.900Z,10.33
2023-01-20T07:53:33.066Z,9.40
2023-01-20T07:56:21.814Z,10.70
2023-01-20T07:59:08.509Z,10.07
2023-01-20T08:01:55.220Z,9.70
2023-01-20T08:04:42.157Z,10.43
2023-01-20T08:07:28.811Z,11.50
2023-01-20T08:10:17.839Z,10.77
2023-01-20T08:13:04.316Z,9.30
2023-01-20T08:15:51.076Z,9.80
2023-01-20T08:18:38.602Z,9.60
2023-01-20T08:21:26.681Z,8.53
2023-01-20T08:24:13.707Z,9.97
2023-01-20T08:27:01.787Z,9.67
2023-01-20T08:29:48.867Z,10.20
2023-01-20T08:32:35.642Z,10.50
2023-01-20T08:35:22.190Z,9.47
2023-01-20T08:38:09.475Z,10.80
2023-01-20T08:40:56.467Z,9.87
2023-01-20T08:43:45.103Z,9.77
2023-01-20T08:46:33.035Z,9.47
2023-01-20T08:49:21.865Z,9.87
2023-01-20T08:52:10.199Z,9.67
2023-01-20T08:54:59.075Z,9.73
2023-01-20T08:57:46.213Z,8.83
2023-01-20T09:00:34.437Z,9.70
2023-01-20T09:03:21.748Z,7.70
2023-01-20T09:06:09.875Z,9.07
2023-01-20T09:08:56.329Z,9.20
2023-01-20T09:11:45.032Z,9.33
2023-01-20T09:14:32.204Z,9.60
2023-01-20T09:17:20.031Z,9.00
2023-01-20T09:20:07.814Z,9.77
2023-01-20T09:22:54.510Z,9.23
2023-01-20T09:25:41.351Z,8.93
2023-01-20T09:28:30.768Z,8.80
2023-01-20T09:31:18.582Z,8.93
2023-01-20T09:34:06.422Z,8.70
2023-01-20T09:36:55.185Z,9.37
2023-01-20T09:39:59.167Z,10.93
2023-01-20T09:43:18.748Z,9.97
2023-01-20T09:46:11.668Z,9.63
2023-01-20T09:49:23.393Z,9.73
2023-01-20T09:52:36.194Z,9.50
2023-01-20T09:55:27.593Z,10.70
2023-01-20T09:58:23.048Z,9.63
2023-01-20T10:01:18.227Z,10.23
2023-01-20T10:04:13.852Z,10.33
2023-01-20T10:07:09.703Z,9.07
2023-01-20T10:10:04.662Z,10.73
2023-01-20T10:12:58.792Z,9.27
2023-01-20T10:15:50.188Z,10.03
2023-01-20T10:18:41.949Z,8.67
2023-01-20T10:21:35.341Z,9.30
2023-01-20T10:24:26.755Z,8.00
2023-01-20T10:27:14.607Z,10.17
2023-01-20T10:30:09.903Z,10.00
2023-01-20T10:33:02.664Z,10.20
2023-01-20T10:35:52.618Z,9.10
2023-01-20T10:38:49.163Z,9.80
2023-01-20T10:41:41.597Z,9.90
2023-01-20T10:44:29.323Z,9.60
2023-01-20T10:47:35.887Z,9.03
2023-01-20T10:50:40.453Z,10.03
2023-01-20T10:53:48.620Z,9.23
2023-01-20T10:56:43.901Z,9.67
2023-01-20T10:59:36.014Z,9.43
2023-01-20T11:02:27.291Z,8.33
2023-01-20T11:05:18.758Z,9.03
2023-01-20T11:08:18.166Z,8.23
2023-01-20T11:11:12.999Z,8.63
2023-01-20T11:14:00.006Z,9.43
2023-01-20T11:16:53.156Z,8.97
2023-01-20T11:19:50.083Z,9.03
2023-01-20T11:22:38.682Z,8.67
2023-01-20T11:25:27.156Z,8.73
2023-01-20T11:28:19.238Z,8.23
2023-01-20T11:31:06.964Z,8.63
2023-01-20T11:34:02.977Z,8.10
2023-01-20T11:36:49.404Z,8.17
2023-01-20T11:39:37.716Z,9.33
2023-01-20T11:42:27.588Z,8.23
2023-01-20T11:45:32.651Z,8.43
2023-01-20T11:48:21.748Z,7.47
2023-01-20T11:51:20.112Z,7.77
2023-01-20T11:54:09.139Z,8.37
2023-01-20T11:57:00.116Z,8.30
2023-01-20T11:59:51.928Z,8.40
2023-01-20T12:02:41.411Z,8.27
2023-01-20T12:05:34.228Z,8.77
2023-01-20T12:08:28.354Z,8.13
2023-01-20T12:11:22.829Z,9.80
2023-01-20T12:14:28.756Z,7.70
2023-01-20T12:17:29.840Z,8.60
2023-01-20T12:20:24.783Z,8.10
2023-01-20T12:23:21.413Z,7.80
2023-01-20T12:26:11.708Z,8.50
2023-01-20T12:29:06.454Z,8.67
2023-01-20T12:31:54.561Z,9.73
2023-01-20T12:34:41.190Z,9.13
2023-01-20T12:37:34.054Z,8.50
2023-01-20T12:40:30.706Z,8.50
2023-01-20T12:43:30.844Z,8.93
2023-01-20T12:46:32.928Z,8.70
2023-01-20T12:49:35.672Z,9.33
2023-01-20T12:52:39.533Z,11.53
2023-01-20T12:55:37.596Z,10.07
2023-01-20T12:58:39.721Z,9.53
2023-01-20T13:01:45.701Z,10.23
2023-01-20T13:04:56.572Z,10.03
2023-01-20T13:07:50.958Z,8.50
2023-01-20T13:10:56.316Z,8.30
2023-01-20T13:14:00.878Z,8.73
2023-01-20T13:16:53.365Z,9.40
2023-01-20T13:19:42.433Z,7.87
2023-01-20T13:22:29.423Z,8.73
2023-01-20T13:25:19.072Z,8.67
2023-01-20T13:28:08.047Z,8.13
2023-01-20T13:30:57.594Z,8.43
2023-01-20T13:33:44.491Z,9.27
2023-01-20T13:36:31.268Z,8.40
2023-01-20T13:39:40.599Z,9.17
2023-01-20T13:42:50.363Z,8.30
2023-01-20T13:45:37.517Z,8.87
2023-01-20T13:48:25.746Z,8.80
2023-01-20T13:51:46.257Z,9.23
2023-01-20T13:54:45.657Z,8.13
2023-01-20T13:57:37.294Z,8.87
2023-01-20T14:00:24.719Z,8.40
2023-01-20T14:03:21.570Z,9.33
2023-01-20T14:06:23.719Z,9.23
2023-01-20T14:09:19.834Z,9.30
2023-01-20T14:12:07.043Z,8.67
2023-01-20T14:14:54.609Z,8.57
2023-01-20T14:17:42.432Z,8.47
2023-01-20T14:20:30.312Z,8.13
2023-01-20T14:23:37.093Z,8.80
2023-01-20T14:26:25.472Z,9.13
2023-01-20T14:29:20.232Z,9.27
2023-01-20T14:32:20.598Z,8.70
2023-01-20T14:35:15.706Z,8.27
2023-01-20T14:38:03.247Z,8.73
2023-01-20T14:40:51.494Z,8.97
2023-01-20T14:43:46.111Z,8.07
2023-01-20T14:46:35.063Z,7.97
2023-01-20T14:49:23.792Z,8.40
2023-01-20T14:52:17.216Z,9.20
2023-01-20T14:55:03.866Z,8.17
2023-01-20T14:57:51.943Z,9.13
2023-01-20T15:00:44.222Z,8.97
2023-01-20T15:03:32.095Z,9.27
2023-01-20T15:06:22.523Z,10.13
2023-01-20T15:09:28.044Z,10.53
2023-01-20T15:12:35.547Z,10.53
2023-01-20T15:15:29.280Z,10.20
2023-01-20T15:18:19.948Z,9.23
2023-01-20T15:21:26.672Z,9.73
2023-01-20T15:24:14.847Z,8.93
2023-01-20T15:27:03.023Z,11.77
2023-01-20T15:30:04.583Z,9.43
2023-01-20T15:32:53.503Z,11.37
2023-01-20T15:35:42.699Z,14.57
2023-01-20T15:38:32.565Z,13.57
2023-01-20T15:41:19.616Z,12.00
2023-01-20T15:44:06.644Z,15.03
2023-01-20T15:46:56.760Z,9.93
2023-01-20T15:49:45.992Z,13.27
2023-01-20T15:52:32.846Z,11.60
2023-01-20T15:55:22.351Z,10.27
2023-01-20T15:58:21.904Z,10.67
2023-01-20T16:01:08.293Z,10.30
2023-01-20T16:03:55.955Z,10.07
2023-01-20T16:06:45.274Z,9.23
2023-01-20T16:09:37.609Z,11.57
2023-01-20T16:12:25.597Z,10.97
2023-01-20T16:15:16.848Z,28.40
2023-01-20T16:18:04.980Z,27.10
2023-01-20T16:20:53.095Z,13.10
2023-01-20T16:23:42.421Z,11.77
2023-01-20T16:26:31.098Z,12.27
2023-01-20T16:29:18.397Z,10.97
2023-01-20T16:32:05.937Z,11.03
2023-01-20T16:34:53.465Z,11.77
2023-01-20T16:37:40.546Z,10.13
2023-01-20T16:40:31.247Z,10.77
2023-01-20T16:43:18.921Z,12.00
2023-01-20T16:46:05.964Z,9.90
2023-01-20T16:48:53.496Z,9.50
2023-01-20T16:51:40.214Z,10.20
2023-01-20T16:54:27.050Z,11.13
2023-01-20T16:57:15.244Z,12.40
2023-01-20T17:00:02.065Z,12.07
2023-01-20T17:02:51.429Z,11.67
2023-01-20T17:05:38.431Z,11.20
2023-01-20T17:08:25.412Z,10.33
2023-01-20T17:11:12.314Z,10.73
2023-01-20T17:14:03.178Z,10.07
2023-01-20T17:16:50.723Z,10.17
2023-01-20T17:19:38.524Z,10.90
2023-01-20T17:22:25.422Z,12.90
2023-01-20T17:25:12.583Z,11.00
2023-01-20T17:27:59.401Z,10.60
2023-01-20T17:30:47.909Z,10.27
2023-01-20T17:33:35.113Z,9.37
2023-01-20T17:36:21.703Z,9.40
2023-01-20T17:39:08.460Z,10.00
2023-01-20T17:41:55.083Z,9.23
2023-01-20T17:44:41.857Z,10.27
2023-01-20T17:47:31.571Z,9.97
2023-01-20T17:50:18.728Z,8.97
2023-01-20T17:53:05.029Z,9.00
2023-01-20T17:55:55.230Z,8.47
2023-01-20T17:58:47.587Z,7.97
2023-01-20T18:01:34.743Z,10.07
2023-01-20T18:04:23.056Z,10.67
2023-01-20T18:07:10.015Z,8.07
2023-01-20T18:09:56.967Z,8.73
2023-01-20T18:12:44.690Z,9.40
2023-01-20T18:15:31.462Z,8.33
2023-01-20T18:18:18.107Z,8.47
2023-01-20T18:21:14.486Z,7.93
2023-01-20T18:24:03.185Z,8.93
2023-01-20T18:26:50.698Z,8.80
2023-01-20T18:29:37.547Z,8.47
2023-01-20T18:32:24.303Z,8.57
2023-01-20T18:35:11.708Z,8.27
2023-01-20T18:38:01.958Z,8.50
2023-01-20T18:40:48.842Z,8.53
2023-01-20T18:43:35.520Z,7.77
2023-01-20T18:46:22.348Z,8.63
2023-01-20T18:49:13.673Z,8.60
2023-01-20T18:52:00.705Z,11.00
2023-01-20T18:54:49.059Z,11.67
2023-01-20T18:57:35.543Z,8.57
2023-01-20T19:00:22.517Z,8.47
2023-01-20T19:03:08.900Z,9.07
2023-01-20T19:05:55.801Z,8.10
2023-01-20T19:08:43.715Z,10.60
2023-01-20T19:11:34.446Z,8.83
2023-01-20T19:14:21.338Z,7.90
2023-01-20T19:17:08.446Z,7.10
2023-01-20T19:19:55.322Z,7.77
2023-01-20T19:22:42.677Z,7.53
2023-01-20T19:25:31.732Z,7.60
2023-01-20T19:28:19.673Z,8.93
2023-01-20T19:31:08.214Z,6.70
2023-01-20T19:33:54.860Z,7.13
2023-01-20T19:36:41.610Z,7.50
2023-01-20T19:39:28.829Z,6.43
2023-01-20T19:42:15.705Z,6.40
2023-01-20T19:45:03.791Z,7.87
2023-01-20T19:47:50.393Z,8.20
2023-01-20T19:50:37.527Z,7.53
2023-01-20T19:53:24.015Z,7.27
2023-01-20T19:56:12.517Z,9.03
2023-01-20T19:59:00.861Z,8.10
2023-01-20T20:01:48.860Z,7.63
2023-01-20T20:04:35.819Z,7.87
2023-01-20T20:07:22.384Z,7.00
2023-01-20T20:10:09.682Z,7.40
2023-01-20T20:12:57.719Z,7.73
2023-01-20T20:15:44.586Z,7.67
2023-01-20T20:18:33.223Z,7.83
2023-01-20T20:21:20.227Z,8.57
2023-01-20T20:24:07.076Z,7.63
2023-01-20T20:26:53.591Z,6.40
2023-01-20T20:29:40.460Z,8.37
2023-01-20T20:32:27.511Z,6.80
2023-01-20T20:35:16.179Z,7.10
2023-01-20T20:38:02.970Z,7.10
2023-01-20T20:40:49.789Z,7.27
2023-01-20T20:43:37.234Z,7.43
2023-01-20T20:46:24.176Z,6.50
2023-01-20T20:49:14.711Z,6.30
2023-01-20T20:52:03.123Z,7.23
2023-01-20T20:54:49.781Z,6.50
2023-01-20T20:57:37.064Z,5.93
2023-01-20T21:00:28.177Z,6.43
2023-01-20T21:03:15.888Z,7.07
2023-01-20T21:06:04.197Z,7.47
2023-01-20T21:08:55.678Z,7.13
2023-01-20T21:11:43.411Z,6.47
2023-01-20T21:14:30.006Z,7.40
2023-01-20T21:17:17.123Z,6.83
2023-01-20T21:20:04.554Z,6.77
2023-01-20T21:22:52.152Z,7.63
2023-01-20T21:25:40.060Z,7.67
2023-01-20T21:28:27.042Z,7.67
2023-01-20T21:31:15.567Z,7.63
2023-01-20T21:34:02.420Z,8.30
2023-01-20T21:36:48.913Z,8.27
2023-01-20T21:39:36.203Z,8.37
2023-01-20T21:42:24.408Z,7.27
2023-01-20T21:45:12.129Z,7.37
2023-01-20T21:48:19.503Z,6.13
2023-01-20T21:51:25.347Z,7.07
2023-01-20T21:54:12.613Z,7.17
2023-01-20T21:57:00.899Z,7.33
2023-01-20T21:59:48.774Z,8.07
2023-01-20T22:02:35.622Z,7.57
2023-01-20T22:05:22.093Z,8.00
2023-01-20T22:08:08.798Z,7.27
2023-01-20T22:10:56.801Z,7.77
2023-01-20T22:13:43.296Z,6.87
2023-01-20T22:16:32.257Z,6.40
2023-01-20T22:19:19.294Z,9.10
2023-01-20T22:22:06.904Z,8.10
2023-01-20T22:24:53.644Z,7.20
2023-01-20T22:27:40.271Z,6.33
2023-01-20T22:30:26.974Z,7.30
2023-01-20T22:33:15.016Z,7.53
2023-01-20T22:36:01.967Z,7.23
2023-01-20T22:38:50.664Z,6.13
2023-01-20T22:41:37.113Z,6.67
2023-01-20T22:44:23.922Z,3.60
2023-01-20T22:47:10.981Z,6.37
2023-01-20T22:49:58.745Z,6.70
2023-01-20T22:52:45.531Z,5.93
2023-01-20T22:55:32.460Z,6.37
2023-01-20T22:58:19.130Z,6.30
2023-01-20T23:01:06.394Z,5.40
2023-01-20T23:03:55.328Z,6.27
2023-01-20T23:06:43.490Z,6.27
2023-01-20T23:09:30.027Z,6.67
2023-01-20T23:12:16.837Z,5.83
2023-01-20T23:15:03.577Z,5.27
2023-01-20T23:17:50.332Z,6.03
2023-01-20T23:20:37.150Z,6.57
2023-01-20T23:23:26.326Z,5.40
2023-01-20T23:26:15.772Z,5.93
2023-01-20T23:29:02.873Z,7.00
2023-01-20T23:31:49.533Z,5.30
2023-01-20T23:34:36.296Z,6.37
2023-01-20T23:37:22.976Z,5.70
2023-01-20T23:40:12.996Z,5.83
2023-01-20T23:42:59.977Z,5.90
2023-01-20T23:45:46.934Z,6.50
2023-01-20T23:48:34.331Z,6.13
2023-01-20T23:51:21.172Z,6.60
2023-01-20T23:54:07.827Z,6.40
2023-01-20T23:56:55.994Z,7.20
2023-01-20T23:59:42.788Z,6.67
